createdAt,value
2014-06-10T00:00:32.280Z,27.76
2014-06-10T00:01:37.267Z,27.48
2014-06-10T00:02:42.270Z,27.6
2014-06-10T00:03:46.958Z,27.45
2014-06-10T00:04:51.946Z,27.55
2014-06-10T00:05:56.634Z,27.51
2014-06-10T00:07:01.324Z,27.41
2014-06-10T00:08:06.013Z,27.44
2014-06-10T00:09:10.704Z,27.23
2014-06-10T00:10:15.393Z,27.35
2014-06-10T00:11:20.083Z,27.78
2014-06-10T00:12:25.068Z,27.74
2014-06-10T00:13:30.070Z,27.52
2014-06-10T00:14:34.759Z,27.48
2014-06-10T00:15:39.449Z,27.27
2014-06-10T00:16:44.139Z,27.38
2014-06-10T00:17:48.829Z,27.55
2014-06-10T00:18:53.518Z,27.68
2014-06-10T00:19:58.208Z,27.57
2014-06-10T00:21:03.194Z,27.33
2014-06-10T00:22:07.883Z,27.14
2014-06-10T00:23:13.169Z,27.04
2014-06-10T00:24:17.859Z,27.09
2014-06-10T00:25:22.844Z,27.11
2014-06-10T00:26:27.533Z,27.22
2014-06-10T00:27:32.224Z,27.04
2014-06-10T00:28:37.209Z,27.18
2014-06-10T00:29:41.899Z,27.26
2014-06-10T00:30:46.885Z,27.16
2014-06-10T00:31:51.575Z,26.88
2014-06-10T00:32:56.561Z,26.57
2014-06-10T00:34:01.251Z,26.86
2014-06-10T00:35:05.956Z,26.64
2014-06-10T00:36:10.644Z,26.79
2014-06-10T00:37:15.334Z,26.82
2014-06-10T00:38:20.024Z,26.78
2014-06-10T00:39:24.715Z,26.7
2014-06-10T00:40:29.404Z,26.69
2014-06-10T00:41:34.094Z,26.68
2014-06-10T00:42:39.080Z,26.66
2014-06-10T00:43:43.771Z,26.76
2014-06-10T00:44:48.459Z,26.98
2014-06-10T00:45:53.149Z,26.85
2014-06-10T00:46:58.135Z,26.81
2014-06-10T00:48:02.824Z,26.9
2014-06-10T00:49:07.811Z,26.95
2014-06-10T00:50:12.499Z,26.98
2014-06-10T00:51:17.190Z,26.89
2014-06-10T00:52:21.192Z,26.95
2014-06-10T00:53:25.881Z,26.92
2014-06-10T00:54:30.572Z,26.82
2014-06-10T00:55:35.558Z,26.96
2014-06-10T00:56:40.249Z,26.8
2014-06-10T00:57:45.235Z,26.89
2014-06-10T00:58:50.221Z,27.03
2014-06-10T00:59:54.910Z,26.93
2014-06-10T01:00:59.896Z,26.8
2014-06-10T01:02:04.586Z,26.77
2014-06-10T01:03:09.572Z,26.74
2014-06-10T01:04:14.560Z,26.79
2014-06-10T01:05:19.249Z,26.78
2014-06-10T01:06:23.939Z,26.63
2014-06-10T01:07:29.236Z,26.62
2014-06-10T01:08:34.224Z,26.5
2014-06-10T01:09:38.226Z,26.65
2014-06-10T01:10:42.915Z,26.72
2014-06-10T01:11:47.605Z,26.61
2014-06-10T01:12:52.294Z,26.54
2014-06-10T01:13:57.281Z,26.38
2014-06-10T01:15:01.970Z,26.58
2014-06-10T01:16:06.644Z,27.02
2014-06-10T01:17:11.349Z,26.9
2014-06-10T01:18:16.335Z,26.86
2014-06-10T01:19:21.025Z,26.73
2014-06-10T01:20:25.716Z,26.84
2014-06-10T01:21:30.405Z,26.33
2014-06-10T01:22:35.391Z,26.13
2014-06-10T01:23:40.097Z,26.08
2014-06-10T01:24:44.786Z,26.01
2014-06-10T01:25:49.772Z,26.05
2014-06-10T01:26:54.759Z,25.98
2014-06-10T01:27:59.447Z,25.86
2014-06-10T01:29:04.137Z,25.94
2014-06-10T01:30:08.827Z,26.31
2014-06-10T01:31:13.517Z,26.62
2014-06-10T01:32:18.206Z,26.55
2014-06-10T01:33:23.193Z,26.21
2014-06-10T01:34:27.883Z,26.3
2014-06-10T01:35:32.573Z,26.51
2014-06-10T01:36:37.559Z,26.18
2014-06-10T01:37:42.249Z,25.9
2014-06-10T01:38:47.235Z,25.9
2014-06-10T01:39:51.924Z,25.88
2014-06-10T01:40:56.911Z,25.77
2014-06-10T01:42:01.599Z,25.76
2014-06-10T01:43:06.290Z,26.26
2014-06-10T01:44:10.978Z,26.29
2014-06-10T01:45:15.965Z,26.02
2014-06-10T01:46:20.654Z,25.78
2014-06-10T01:47:25.344Z,25.84
2014-06-10T01:48:30.332Z,25.71
2014-06-10T01:49:35.318Z,25.95
2014-06-10T01:50:40.008Z,26.08
2014-06-10T01:51:44.994Z,26.36
2014-06-10T01:52:49.684Z,25.96
2014-06-10T01:53:54.373Z,25.89
2014-06-10T01:54:59.063Z,26.04
2014-06-10T01:56:03.752Z,26.21
2014-06-10T01:57:08.739Z,26.45
2014-06-10T01:58:13.428Z,25.85
2014-06-10T01:59:18.415Z,25.66
2014-06-10T02:00:23.103Z,25.58
2014-06-10T02:01:27.793Z,26.21
2014-06-10T02:02:32.500Z,26.4
2014-06-10T02:03:37.486Z,26.35
2014-06-10T02:04:42.472Z,26.06
2014-06-10T02:05:47.459Z,26
2014-06-10T02:06:52.445Z,25.92
2014-06-10T02:07:57.432Z,25.86
2014-06-10T02:09:02.120Z,25.78
2014-06-10T02:10:06.810Z,25.89
2014-06-10T02:11:11.797Z,25.6
2014-06-10T02:12:16.783Z,25.62
2014-06-10T02:13:21.472Z,25.7
2014-06-10T02:14:26.162Z,25.78
2014-06-10T02:15:30.851Z,25.66
2014-06-10T02:16:35.540Z,25.56
2014-06-10T02:17:40.232Z,25.37
2014-06-10T02:18:45.218Z,25.6
2014-06-10T02:19:50.205Z,26.04
2014-06-10T02:20:55.191Z,25.65
2014-06-10T02:22:00.177Z,25.44
2014-06-10T02:23:04.867Z,25.69
2014-06-10T02:24:10.150Z,25.42
2014-06-10T02:25:14.840Z,25.42
2014-06-10T02:26:19.826Z,25.42
2014-06-10T02:27:25.109Z,25.69
2014-06-10T02:28:29.798Z,26
2014-06-10T02:29:34.487Z,26.02
2014-06-10T02:30:39.476Z,25.75
2014-06-10T02:31:44.462Z,25.58
2014-06-10T02:32:49.151Z,25.44
2014-06-10T02:33:53.841Z,25.34
2014-06-10T02:34:58.827Z,25.64
2014-06-10T02:36:03.517Z,25.55
2014-06-10T02:37:08.206Z,25.46
2014-06-10T02:38:13.193Z,25.47
2014-06-10T02:39:18.178Z,25.86
2014-06-10T02:40:23.164Z,25.67
2014-06-10T02:41:28.152Z,25.56
2014-06-10T02:42:32.840Z,25.53
2014-06-10T02:43:37.530Z,25.47
2014-06-10T02:44:42.221Z,25.3
2014-06-10T02:45:46.895Z,25.36
2014-06-10T02:46:51.600Z,25.68
2014-06-10T02:47:56.290Z,25.32
2014-06-10T02:49:01.276Z,25.46
2014-06-10T02:50:06.263Z,25.36
2014-06-10T02:51:10.265Z,25.47
2014-06-10T02:52:14.953Z,25.29
2014-06-10T02:53:19.644Z,25.09
2014-06-10T02:54:24.333Z,25.13
2014-06-10T02:55:29.318Z,25.46
2014-06-10T02:56:34.009Z,25.01
2014-06-10T02:57:38.698Z,24.86
2014-06-10T02:58:43.388Z,25.24
2014-06-10T02:59:48.077Z,24.9
2014-06-10T03:00:52.768Z,24.94
2014-06-10T03:01:57.458Z,25.15
2014-06-10T03:03:02.147Z,25.39
2014-06-10T03:04:06.836Z,25.45
2014-06-10T03:05:11.823Z,25.4
2014-06-10T03:06:16.512Z,25.54
2014-06-10T03:07:21.498Z,25.28
2014-06-10T03:08:26.485Z,25.02
2014-06-10T03:09:31.175Z,25.3
2014-06-10T03:10:35.863Z,25.62
2014-06-10T03:11:40.553Z,25.85
2014-06-10T03:12:45.227Z,25.93
2014-06-10T03:13:50.228Z,25.5
2014-06-10T03:14:54.918Z,25.62
2014-06-10T03:15:59.906Z,25.59
2014-06-10T03:17:04.596Z,25.66
2014-06-10T03:18:09.879Z,25.22
2014-06-10T03:19:14.569Z,25.05
2014-06-10T03:20:19.258Z,25.1
2014-06-10T03:21:23.948Z,24.89
2014-06-10T03:22:28.933Z,25.2
2014-06-10T03:23:33.622Z,25.26
2014-06-10T03:24:38.313Z,25.36
2014-06-10T03:25:43.001Z,24.99
2014-06-10T03:26:47.691Z,25.31
2014-06-10T03:27:52.380Z,25.3
2014-06-10T03:28:57.071Z,25.31
2014-06-10T03:30:01.761Z,25.63
2014-06-10T03:31:06.451Z,25.56
2014-06-10T03:32:11.437Z,25.55
2014-06-10T03:33:16.721Z,25.17
2014-06-10T03:34:21.410Z,25.31
2014-06-10T03:35:26.100Z,25.08
2014-06-10T03:36:30.789Z,24.94
2014-06-10T03:37:35.479Z,25.48
2014-06-10T03:38:40.168Z,25.55
2014-06-10T03:39:44.858Z,25.22
2014-06-10T03:40:49.844Z,25.17
2014-06-10T03:41:53.846Z,25.29
2014-06-10T03:42:58.520Z,25.22
2014-06-10T03:44:02.819Z,24.96
2014-06-10T03:45:07.508Z,24.99
2014-06-10T03:46:12.213Z,24.92
2014-06-10T03:47:16.903Z,25.09
2014-06-10T03:48:21.592Z,24.86
2014-06-10T03:49:26.580Z,24.85
2014-06-10T03:50:31.268Z,25.16
2014-06-10T03:51:35.958Z,25.04
2014-06-10T03:52:40.944Z,25.25
2014-06-10T03:53:45.634Z,25.11
2014-06-10T03:54:50.620Z,25.08
2014-06-10T03:55:55.309Z,25.02
2014-06-10T03:57:00.298Z,25.02
2014-06-10T03:58:04.987Z,25.06
2014-06-10T03:59:09.677Z,25.1
2014-06-10T04:00:14.378Z,25.55
2014-06-10T04:01:19.388Z,25.66
2014-06-10T04:02:24.131Z,25.72
2014-06-10T04:03:28.860Z,25.73
2014-06-10T04:04:33.588Z,25.82
2014-06-10T04:05:38.309Z,26.06
2014-06-10T04:06:43.013Z,25.72
2014-06-10T04:07:47.716Z,25.58
2014-06-10T04:08:52.699Z,25.41
2014-06-10T04:09:57.715Z,25.41
2014-06-10T04:11:02.416Z,25.38
2014-06-10T04:12:07.110Z,25.24
2014-06-10T04:13:11.812Z,25.19
2014-06-10T04:14:16.802Z,25.67
2014-06-10T04:15:21.496Z,25.45
2014-06-10T04:16:26.188Z,25.44
2014-06-10T04:17:31.177Z,25.48
2014-06-10T04:18:36.164Z,25.6
2014-06-10T04:19:40.856Z,25.34
2014-06-10T04:20:45.546Z,25.38
2014-06-10T04:21:50.237Z,25.17
2014-06-10T04:22:55.223Z,25.21
2014-06-10T04:24:00.209Z,25.15
2014-06-10T04:25:04.899Z,25.34
2014-06-10T04:26:10.183Z,25.61
2014-06-10T04:27:14.875Z,25.68
2014-06-10T04:28:19.564Z,25.93
2014-06-10T04:29:24.255Z,26.09
2014-06-10T04:30:28.944Z,26.2
2014-06-10T04:31:33.930Z,26.11
2014-06-10T04:32:38.620Z,26.16
2014-06-10T04:33:43.309Z,26.21
2014-06-10T04:34:47.999Z,26.34
2014-06-10T04:35:52.688Z,26.25
2014-06-10T04:36:57.378Z,25.79
2014-06-10T04:38:02.067Z,26.17
2014-06-10T04:39:07.351Z,25.95
2014-06-10T04:40:12.337Z,26.15
2014-06-10T04:41:17.029Z,26.28
2014-06-10T04:42:22.015Z,26.09
2014-06-10T04:43:26.704Z,26.28
2014-06-10T04:44:31.410Z,26.3
2014-06-10T04:45:36.396Z,26.61
2014-06-10T04:46:41.084Z,26.43
2014-06-10T04:47:46.070Z,26.67
2014-06-10T04:48:51.057Z,26.75
2014-06-10T04:49:56.043Z,26.91
2014-06-10T04:51:00.733Z,26.8
2014-06-10T04:52:06.031Z,26.69
2014-06-10T04:53:10.721Z,26.94
2014-06-10T04:54:15.707Z,26.98
2014-06-10T04:55:19.712Z,27.28
2014-06-10T04:56:24.697Z,27.43
2014-06-10T04:57:29.684Z,27.46
2014-06-10T04:58:34.373Z,27.71
2014-06-10T04:59:39.063Z,27.88
2014-06-10T05:00:43.768Z,27.71
2014-06-10T05:01:48.457Z,27.91
2014-06-10T05:02:53.147Z,27.91
2014-06-10T05:03:58.133Z,28.25
2014-06-10T05:05:02.823Z,28.21
2014-06-10T05:06:07.511Z,28.59
2014-06-10T05:07:12.202Z,28.56
2014-06-10T05:08:16.890Z,28.79
2014-06-10T05:09:21.878Z,28.76
2014-06-10T05:10:26.568Z,28.86
2014-06-10T05:11:31.257Z,29
2014-06-10T05:12:35.947Z,29.18
2014-06-10T05:13:40.933Z,29.15
2014-06-10T05:14:45.623Z,29.19
2014-06-10T05:15:50.905Z,29.2
2014-06-10T05:16:55.596Z,29.41
2014-06-10T05:18:00.285Z,29.68
2014-06-10T05:19:04.989Z,29.51
2014-06-10T05:20:09.680Z,29.71
2014-06-10T05:21:14.368Z,29.84
2014-06-10T05:22:19.059Z,29.97
2014-06-10T05:23:23.748Z,29.86
2014-06-10T05:24:28.453Z,29.87
2014-06-10T05:25:33.143Z,29.48
2014-06-10T05:26:37.831Z,29.57
2014-06-10T05:27:42.522Z,29.49
2014-06-10T05:28:47.211Z,29.56
2014-06-10T05:29:52.198Z,29.55
2014-06-10T05:30:56.887Z,29.32
2014-06-10T05:32:01.876Z,29.51
2014-06-10T05:33:06.565Z,29.36
2014-06-10T05:34:11.255Z,29.58
2014-06-10T05:35:16.257Z,29.51
2014-06-10T05:36:20.945Z,29.34
2014-06-10T05:37:25.932Z,29.51
2014-06-10T05:38:30.919Z,29.48
2014-06-10T05:39:35.608Z,29.31
2014-06-10T05:40:40.297Z,29.42
2014-06-10T05:41:45.003Z,29.38
2014-06-10T05:42:49.692Z,29.32
2014-06-10T05:43:54.381Z,29.47
2014-06-10T05:44:59.086Z,29.18
2014-06-10T05:46:04.072Z,29.14
2014-06-10T05:47:08.762Z,29.24
2014-06-10T05:48:13.451Z,29.28
2014-06-10T05:49:18.141Z,29.13
2014-06-10T05:50:22.832Z,28.98
2014-06-10T05:51:27.819Z,28.79
2014-06-10T05:52:32.508Z,28.72
2014-06-10T05:53:37.198Z,28.64
2014-06-10T05:54:41.886Z,28.66
2014-06-10T05:55:47.186Z,28.71
2014-06-10T05:56:51.876Z,28.63
2014-06-10T05:57:56.862Z,28.24
2014-06-10T05:59:01.566Z,28.17
2014-06-10T06:00:06.554Z,28.32
2014-06-10T06:01:11.242Z,28.02
2014-06-10T06:02:15.932Z,27.92
2014-06-10T06:03:20.637Z,27.88
2014-06-10T06:04:25.328Z,27.89
2014-06-10T06:05:30.610Z,27.95
2014-06-10T06:06:35.301Z,27.84
2014-06-10T06:07:39.990Z,28.01
2014-06-10T06:08:44.977Z,27.92
2014-06-10T06:09:49.666Z,27.81
2014-06-10T06:10:54.356Z,27.7
2014-06-10T06:11:59.044Z,27.7
2014-06-10T06:13:03.734Z,27.43
2014-06-10T06:14:08.423Z,27.56
2014-06-10T06:15:13.410Z,27.66
2014-06-10T06:16:18.099Z,27.7
2014-06-10T06:17:22.789Z,27.82
2014-06-10T06:18:27.480Z,27.73
2014-06-10T06:19:32.170Z,27.47
2014-06-10T06:20:37.156Z,27.91
2014-06-10T06:21:42.142Z,27.82
2014-06-10T06:22:46.832Z,27.61
2014-06-10T06:23:51.521Z,27.44
2014-06-10T06:24:56.508Z,27.95
2014-06-10T06:26:01.493Z,28.02
2014-06-10T06:27:06.184Z,27.86
2014-06-10T06:28:10.873Z,27.78
2014-06-10T06:29:15.562Z,27.81
2014-06-10T06:30:20.251Z,27.85
2014-06-10T06:31:24.942Z,27.5
2014-06-10T06:32:29.630Z,27.69
2014-06-10T06:33:34.617Z,27.77
2014-06-10T06:34:38.621Z,27.98
2014-06-10T06:35:43.326Z,27.74
2014-06-10T06:36:48.312Z,27.63
2014-06-10T06:37:53.298Z,27.83
2014-06-10T06:38:57.988Z,27.82
2014-06-10T06:40:02.974Z,28.12
2014-06-10T06:41:07.960Z,28.36
2014-06-10T06:42:12.650Z,28.38
2014-06-10T06:43:17.340Z,28.48
2014-06-10T06:44:22.326Z,28.48
2014-06-10T06:45:27.312Z,28.43
2014-06-10T06:46:32.002Z,28.24
2014-06-10T06:47:36.690Z,28.09
2014-06-10T06:48:41.679Z,28.03
2014-06-10T06:49:46.665Z,28.36
2014-06-10T06:50:51.354Z,28.64
2014-06-10T06:51:56.044Z,28.9
2014-06-10T06:53:00.343Z,28.64
2014-06-10T06:54:05.033Z,28.86
2014-06-10T06:55:09.722Z,28.88
2014-06-10T06:56:14.412Z,28.69
2014-06-10T06:57:19.398Z,28.78
2014-06-10T06:58:24.086Z,28.73
2014-06-10T06:59:28.776Z,28.64
2014-06-10T07:00:33.762Z,28.8
2014-06-10T07:01:38.764Z,29.11
2014-06-10T07:02:43.456Z,29.41
2014-06-10T07:03:48.145Z,29.78
2014-06-10T07:04:52.835Z,29.67
2014-06-10T07:05:57.820Z,29.68
2014-06-10T07:07:02.808Z,29.95
2014-06-10T07:08:07.809Z,30.19
2014-06-10T07:09:11.812Z,30.34
2014-06-10T07:10:16.501Z,30.43
2014-06-10T07:11:21.486Z,30.34
2014-06-10T07:12:26.193Z,30.62
2014-06-10T07:13:31.179Z,30.86
2014-06-10T07:14:36.165Z,30.85
2014-06-10T07:15:40.854Z,30.38
2014-06-10T07:16:45.543Z,30.7
2014-06-10T07:17:49.545Z,31.05
2014-06-10T07:18:54.844Z,31.1
2014-06-10T07:19:59.831Z,31.08
2014-06-10T07:21:04.817Z,31.43
2014-06-10T07:22:09.819Z,31.44
2014-06-10T07:23:14.805Z,31.55
2014-06-10T07:24:19.793Z,31.67
2014-06-10T07:25:24.482Z,31.91
2014-06-10T07:26:29.174Z,31.88
2014-06-10T07:27:33.879Z,31.76
2014-06-10T07:28:38.568Z,31.78
2014-06-10T07:29:43.258Z,32
2014-06-10T07:30:47.947Z,32.12
2014-06-10T07:31:52.636Z,32.33
2014-06-10T07:32:57.341Z,32.31
2014-06-10T07:34:02.624Z,32.51
2014-06-10T07:35:07.315Z,32.23
2014-06-10T07:36:12.301Z,32.46
2014-06-10T07:37:16.319Z,32.62
2014-06-10T07:38:20.320Z,32.88
2014-06-10T07:39:25.009Z,33.14
2014-06-10T07:40:29.699Z,33.2
2014-06-10T07:41:34.388Z,33.01
2014-06-10T07:42:39.093Z,33.03
2014-06-10T07:43:43.782Z,32.85
2014-06-10T07:44:48.473Z,33.07
2014-06-10T07:45:53.178Z,33.13
2014-06-10T07:46:57.868Z,33.2
2014-06-10T07:48:02.558Z,33.29
2014-06-10T07:49:07.248Z,33.43
2014-06-10T07:50:11.952Z,33.39
2014-06-10T07:51:16.938Z,33.43
2014-06-10T07:52:21.628Z,33.37
2014-06-10T07:53:26.333Z,33.18
2014-06-10T07:54:31.023Z,33.3
2014-06-10T07:55:35.712Z,33.5
2014-06-10T07:56:40.714Z,33.3
2014-06-10T07:57:45.403Z,33.31
2014-06-10T07:58:50.095Z,33.4
2014-06-10T07:59:55.097Z,33.53
2014-06-10T08:01:00.083Z,33.6
2014-06-10T08:02:04.772Z,33.76
2014-06-10T08:03:09.758Z,32.9
2014-06-10T08:04:14.449Z,33.29
2014-06-10T08:05:19.450Z,33.58
2014-06-10T08:06:24.155Z,33.89
2014-06-10T08:07:29.141Z,33.76
2014-06-10T08:08:34.127Z,33.75
2014-06-10T08:09:39.130Z,33.88
2014-06-10T08:10:43.819Z,33.86
2014-06-10T08:11:48.508Z,33.86
2014-06-10T08:12:53.199Z,33.9
2014-06-10T08:13:57.889Z,33.74
2014-06-10T08:15:02.891Z,34
2014-06-10T08:16:07.580Z,34.19
2014-06-10T08:17:12.270Z,34.19
2014-06-10T08:18:16.975Z,34.33
2014-06-10T08:19:21.664Z,34.12
2014-06-10T08:20:26.354Z,33.22
2014-06-10T08:21:30.371Z,33.58
2014-06-10T08:22:35.358Z,33.96
2014-06-10T08:23:40.360Z,33.66
2014-06-10T08:24:45.346Z,32.45
2014-06-10T08:25:49.661Z,33.38
2014-06-10T08:26:54.649Z,33.74
2014-06-10T08:27:59.338Z,33.91
2014-06-10T08:29:04.044Z,34.15
2014-06-10T08:30:08.733Z,34.06
2014-06-10T08:31:13.720Z,34.38
2014-06-10T08:32:19.017Z,34.34
2014-06-10T08:33:24.301Z,34.5
2014-06-10T08:34:29.303Z,34.38
2014-06-10T08:35:34.305Z,34.95
2014-06-10T08:36:38.994Z,34.4
2014-06-10T08:37:43.980Z,34.22
2014-06-10T08:38:48.966Z,34.07
2014-06-10T08:39:53.952Z,34.28
2014-06-10T08:40:58.956Z,34.63
2014-06-10T08:42:03.944Z,34.78
2014-06-10T08:43:08.649Z,34.87
2014-06-10T08:44:13.338Z,33.4
2014-06-10T08:45:18.027Z,33.7
2014-06-10T08:46:22.732Z,34.05
2014-06-10T08:47:27.718Z,34.27
2014-06-10T08:48:32.408Z,34.17
2014-06-10T08:49:37.410Z,34.12
2014-06-10T08:50:42.396Z,34.14
2014-06-10T08:51:47.086Z,34.32
2014-06-10T08:52:51.791Z,34.32
2014-06-10T08:53:56.480Z,34.55
2014-06-10T08:55:01.467Z,34.6
2014-06-10T08:56:06.174Z,34.59
2014-06-10T08:57:10.863Z,34.65
2014-06-10T08:58:15.552Z,34.67
2014-06-10T08:59:20.257Z,34.59
2014-06-10T09:00:25.244Z,34.63
2014-06-10T09:01:29.949Z,34.72
2014-06-10T09:02:34.935Z,34.47
2014-06-10T09:03:38.937Z,34.5
2014-06-10T09:04:43.939Z,34.54
2014-06-10T09:05:48.629Z,34.71
2014-06-10T09:06:53.318Z,34.86
2014-06-10T09:07:58.320Z,34.76
2014-06-10T09:09:03.306Z,34.65
2014-06-10T09:10:08.012Z,34.81
2014-06-10T09:11:12.999Z,34.5
2014-06-10T09:12:17.688Z,34.58
2014-06-10T09:13:22.393Z,34.74
2014-06-10T09:14:27.083Z,34.9
2014-06-10T09:15:32.365Z,35.06
2014-06-10T09:16:37.070Z,34.98
2014-06-10T09:17:41.760Z,34.92
2014-06-10T09:18:46.449Z,34.49
2014-06-10T09:19:51.751Z,34.48
2014-06-10T09:20:56.736Z,34.84
2014-06-10T09:22:01.442Z,34.57
2014-06-10T09:23:06.428Z,34.77
2014-06-10T09:24:11.133Z,34.87
2014-06-10T09:25:15.823Z,34.97
2014-06-10T09:26:20.512Z,35.14
2014-06-10T09:27:25.514Z,35.2
2014-06-10T09:28:30.797Z,35.24
2014-06-10T09:29:35.502Z,35.01
2014-06-10T09:30:40.489Z,34.91
2014-06-10T09:31:45.177Z,35.11
2014-06-10T09:32:49.883Z,35.33
2014-06-10T09:33:54.885Z,35.58
2014-06-10T09:34:59.574Z,35.52
2014-06-10T09:36:04.576Z,34.78
2014-06-10T09:37:09.267Z,34.59
2014-06-10T09:38:13.957Z,34.37
2014-06-10T09:39:18.663Z,34.02
2014-06-10T09:40:23.945Z,34.38
2014-06-10T09:41:28.635Z,34.75
2014-06-10T09:42:33.341Z,34.75
2014-06-10T09:43:38.029Z,34.98
2014-06-10T09:44:43.031Z,34.41
2014-06-10T09:45:48.315Z,34.7
2014-06-10T09:46:53.020Z,34.83
2014-06-10T09:47:58.022Z,34.77
2014-06-10T09:49:02.711Z,35
2014-06-10T09:50:07.713Z,35.1
2014-06-10T09:51:12.403Z,35.29
2014-06-10T09:52:17.406Z,35.05
2014-06-10T09:53:22.393Z,35.09
2014-06-10T09:54:27.379Z,35.15
2014-06-10T09:55:32.068Z,35.14
2014-06-10T09:56:37.070Z,34.7
2014-06-10T09:57:41.775Z,34.9
2014-06-10T09:58:46.465Z,34.96
2014-06-10T09:59:51.170Z,35.09
2014-06-10T10:00:56.156Z,34.95
2014-06-10T10:02:00.846Z,34.74
2014-06-10T10:03:05.534Z,34.94
2014-06-10T10:04:10.240Z,35.26
2014-06-10T10:05:14.930Z,35.36
2014-06-10T10:06:19.932Z,35.65
2014-06-10T10:07:25.215Z,35.43
2014-06-10T10:08:30.530Z,35.31
2014-06-10T10:09:35.532Z,34.46
2014-06-10T10:10:40.535Z,35.32
2014-06-10T10:11:45.225Z,35.45
2014-06-10T10:12:50.227Z,35.54
2014-06-10T10:13:55.212Z,35.82
2014-06-10T10:14:59.903Z,35.97
2014-06-10T10:16:04.608Z,35.82
2014-06-10T10:17:09.298Z,35.46
2014-06-10T10:18:13.987Z,35.36
2014-06-10T10:19:18.692Z,34.84
2014-06-10T10:20:23.382Z,35.25
2014-06-10T10:21:28.384Z,35.57
2014-06-10T10:22:33.073Z,35.71
2014-06-10T10:23:38.075Z,35.96
2014-06-10T10:24:42.765Z,35.92
2014-06-10T10:25:47.767Z,36.12
2014-06-10T10:26:53.080Z,36.04
2014-06-10T10:27:57.770Z,36.36
2014-06-10T10:29:02.475Z,36.51
2014-06-10T10:30:06.479Z,36.99
2014-06-10T10:31:11.481Z,37.14
2014-06-10T10:32:16.169Z,36.7
2014-06-10T10:33:20.875Z,36.16
2014-06-10T10:34:25.862Z,36.4
2014-06-10T10:35:30.551Z,35.64
2014-06-10T10:36:35.256Z,35.74
2014-06-10T10:37:39.945Z,36.58
2014-06-10T10:38:44.948Z,36.91
2014-06-10T10:39:49.934Z,36.88
2014-06-10T10:40:54.638Z,37.08
2014-06-10T10:41:59.328Z,36.54
2014-06-10T10:43:04.330Z,36.56
2014-06-10T10:44:09.318Z,36.37
2014-06-10T10:45:14.023Z,35.51
2014-06-10T10:46:18.713Z,36.34
2014-06-10T10:47:23.418Z,36.45
2014-06-10T10:48:28.107Z,35.68
2014-06-10T10:49:32.813Z,35.42
2014-06-10T10:50:37.798Z,35.8
2014-06-10T10:51:42.800Z,35.74
2014-06-10T10:52:47.491Z,36.11
2014-06-10T10:53:52.195Z,35.48
2014-06-10T10:54:56.884Z,35.89
2014-06-10T10:56:01.590Z,35.93
2014-06-10T10:57:06.280Z,35.99
2014-06-10T10:58:10.984Z,36.17
2014-06-10T10:59:15.675Z,36.49
2014-06-10T11:00:20.381Z,36.18
2014-06-10T11:01:25.070Z,35.67
2014-06-10T11:02:29.775Z,35.39
2014-06-10T11:03:34.762Z,34.9
2014-06-10T11:04:39.451Z,34.8
2014-06-10T11:05:44.453Z,35.09
2014-06-10T11:06:49.439Z,34.62
2014-06-10T11:07:54.129Z,34.99
2014-06-10T11:08:58.833Z,34.7
2014-06-10T11:10:03.836Z,35.03
2014-06-10T11:11:08.526Z,35.03
2014-06-10T11:12:13.214Z,35.05
2014-06-10T11:13:17.919Z,35.61
2014-06-10T11:14:22.906Z,35.18
2014-06-10T11:15:27.910Z,35.22
2014-06-10T11:16:32.599Z,35.6
2014-06-10T11:17:37.585Z,35.88
2014-06-10T11:18:42.291Z,36
2014-06-10T11:19:46.980Z,35.64
2014-06-10T11:20:51.670Z,35.78
2014-06-10T11:21:56.358Z,35.28
2014-06-10T11:23:01.361Z,35.45
2014-06-10T11:24:06.051Z,35.68
2014-06-10T11:25:10.755Z,35.79
2014-06-10T11:26:15.444Z,35.28
2014-06-10T11:27:20.446Z,35.26
2014-06-10T11:28:25.433Z,35.55
2014-06-10T11:29:30.437Z,35.4
2014-06-10T11:30:35.423Z,35.75
2014-06-10T11:31:40.127Z,35.68
2014-06-10T11:32:44.818Z,35.86
2014-06-10T11:33:49.507Z,36.03
2014-06-10T11:34:54.212Z,36.14
2014-06-10T11:35:58.902Z,36.27
2014-06-10T11:37:03.606Z,36.42
2014-06-10T11:38:08.296Z,36.04
2014-06-10T11:39:13.282Z,35.65
2014-06-10T11:40:17.988Z,35.42
2014-06-10T11:41:22.974Z,35.47
2014-06-10T11:42:27.976Z,35.7
2014-06-10T11:43:32.963Z,36.02
2014-06-10T11:44:37.965Z,35.7
2014-06-10T11:45:43.250Z,36.01
2014-06-10T11:46:47.955Z,36.06
2014-06-10T11:47:52.643Z,36.06
2014-06-10T11:48:57.333Z,35.79
2014-06-10T11:50:02.334Z,36.02
2014-06-10T11:51:07.024Z,36.02
2014-06-10T11:52:12.026Z,35.74
2014-06-10T11:53:16.715Z,36
2014-06-10T11:54:21.405Z,35.66
2014-06-10T11:55:26.111Z,36.03
2014-06-10T11:56:30.800Z,36.16
2014-06-10T11:57:35.505Z,36.3
2014-06-10T11:58:40.507Z,36.36
2014-06-10T11:59:45.197Z,36.54
2014-06-10T12:00:50.200Z,36.5
2014-06-10T12:01:54.888Z,36.2
2014-06-10T12:02:59.578Z,36.28
2014-06-10T12:04:04.283Z,36.31
2014-06-10T12:05:08.972Z,36.38
2014-06-10T12:06:13.677Z,36.28
2014-06-10T12:07:18.367Z,36.3
2014-06-10T12:08:23.056Z,36.47
2014-06-10T12:09:28.389Z,36.62
2014-06-10T12:10:33.109Z,36.69
2014-06-10T12:11:38.095Z,36.61
2014-06-10T12:12:42.801Z,36.57
2014-06-10T12:13:47.490Z,36.82
2014-06-10T12:14:52.180Z,36.93
2014-06-10T12:15:56.884Z,36.77
2014-06-10T12:17:01.573Z,36.71
2014-06-10T12:18:06.263Z,36.78
2014-06-10T12:19:11.266Z,36.77
2014-06-10T12:20:15.954Z,36.27
2014-06-10T12:21:20.957Z,36.15
2014-06-10T12:22:25.662Z,36.13
2014-06-10T12:23:30.648Z,36.13
2014-06-10T12:24:35.650Z,35.94
2014-06-10T12:25:40.341Z,35.86
2014-06-10T12:26:45.030Z,35.96
2014-06-10T12:27:50.033Z,36.12
2014-06-10T12:28:54.721Z,36.36
2014-06-10T12:29:59.428Z,36.28
2014-06-10T12:31:04.414Z,35.9
2014-06-10T12:32:09.119Z,35.46
2014-06-10T12:33:14.105Z,35.85
2014-06-10T12:34:18.795Z,35.92
2014-06-10T12:35:23.499Z,35.81
2014-06-10T12:36:28.189Z,36.16
2014-06-10T12:37:32.878Z,36.16
2014-06-10T12:38:37.583Z,36.12
2014-06-10T12:39:42.866Z,36.14
2014-06-10T12:40:47.870Z,36.4
2014-06-10T12:41:52.872Z,36.72
2014-06-10T12:42:57.561Z,36.63
2014-06-10T12:44:02.267Z,36.44
2014-06-10T12:45:06.956Z,36.39
2014-06-10T12:46:11.645Z,36.52
2014-06-10T12:47:16.350Z,36.7
2014-06-10T12:48:21.040Z,37.01
2014-06-10T12:49:26.026Z,36.95
2014-06-10T12:50:30.731Z,36.97
2014-06-10T12:51:35.436Z,36.77
2014-06-10T12:52:40.141Z,36.26
2014-06-10T12:53:44.847Z,36.4
2014-06-10T12:54:49.835Z,36.47
2014-06-10T12:55:54.836Z,36.29
2014-06-10T12:57:00.119Z,36.36
2014-06-10T12:58:05.122Z,36.16
2014-06-10T12:59:09.811Z,36.53
2014-06-10T13:00:14.501Z,36.8
2014-06-10T13:01:19.206Z,36.91
2014-06-10T13:02:24.193Z,37.2
2014-06-10T13:03:28.897Z,36.98
2014-06-10T13:04:33.900Z,36.91
2014-06-10T13:05:38.589Z,37.15
2014-06-10T13:06:43.575Z,37.36
2014-06-10T13:07:48.617Z,37.37
2014-06-10T13:08:53.700Z,37.08
2014-06-10T13:09:58.428Z,37.12
2014-06-10T13:11:03.173Z,36.92
2014-06-10T13:12:07.877Z,36.9
2014-06-10T13:13:12.581Z,36.58
2014-06-10T13:14:17.597Z,36.78
2014-06-10T13:15:22.300Z,37.03
2014-06-10T13:16:27.316Z,37.02
2014-06-10T13:17:32.605Z,36.96
2014-06-10T13:18:37.612Z,37.03
2014-06-10T13:19:42.602Z,37.15
2014-06-10T13:20:47.314Z,36.86
2014-06-10T13:21:52.304Z,36.55
2014-06-10T13:22:57.308Z,36.86
2014-06-10T13:24:02.300Z,36.95
2014-06-10T13:25:07.006Z,36.91
2014-06-10T13:26:11.995Z,37.1
2014-06-10T13:27:16.685Z,37.1
2014-06-10T13:28:21.390Z,37.19
2014-06-10T13:29:26.081Z,36.7
2014-06-10T13:30:30.771Z,36.91
2014-06-10T13:31:35.774Z,36.95
2014-06-10T13:32:40.761Z,36.43
2014-06-10T13:33:45.467Z,36.73
2014-06-10T13:34:50.452Z,36.98
2014-06-10T13:35:55.143Z,37.09
2014-06-10T13:37:00.147Z,37.13
2014-06-10T13:38:04.836Z,37.03
2014-06-10T13:39:09.838Z,37.03
2014-06-10T13:40:14.825Z,37.27
2014-06-10T13:41:19.529Z,37.34
2014-06-10T13:42:24.235Z,37.41
2014-06-10T13:43:29.236Z,36.77
2014-06-10T13:44:33.941Z,36.82
2014-06-10T13:45:39.257Z,37.07
2014-06-10T13:46:43.945Z,37.08
2014-06-10T13:47:48.666Z,36.74
2014-06-10T13:48:53.387Z,36.78
2014-06-10T13:49:58.373Z,36.47
2014-06-10T13:51:03.080Z,36.45
2014-06-10T13:52:08.082Z,36.44
2014-06-10T13:53:13.365Z,36.62
2014-06-10T13:54:18.070Z,36.55
2014-06-10T13:55:22.760Z,36.38
2014-06-10T13:56:27.449Z,36.5
2014-06-10T13:57:32.170Z,36.57
2014-06-10T13:58:36.874Z,36.73